sensor_id;sensor_type;location;lat;lon;timestamp;P1;durP1;ratioP1;P2;durP2;ratioP2
60979;SDS011;46851;49.160;8.980;2024-01-27T00:02:00;9.82;;;4.20;;
60979;SDS011;46851;49.160;8.980;2024-01-27T00:04:26;7.50;;;3.70;;
60979;SDS011;46851;49.160;8.980;2024-01-27T00:06:52;8.60;;;4.05;;
60979;SDS011;46851;49.160;8.980;2024-01-27T00:09:18;11.23;;;4.20;;
60979;SDS011;46851;49.160;8.980;2024-01-27T00:11:44;7.47;;;3.90;;
60979;SDS011;46851;49.160;8.980;2024-01-27T00:14:10;9.38;;;3.88;;
60979;SDS011;46851;49.160;8.980;2024-01-27T00:16:36;12.27;;;3.92;;
60979;SDS011;46851;49.160;8.980;2024-01-27T00:19:02;7.18;;;4.20;;
60979;SDS011;46851;49.160;8.980;2024-01-27T00:21:28;11.52;;;4.53;;
60979;SDS011;46851;49.160;8.980;2024-01-27T00:23:56;13.05;;;3.90;;
60979;SDS011;46851;49.160;8.980;2024-01-27T00:26:26;8.82;;;3.88;;
60979;SDS011;46851;49.160;8.980;2024-01-27T00:28:52;11.85;;;4.20;;
60979;SDS011;46851;49.160;8.980;2024-01-27T00:31:19;11.73;;;4.90;;
60979;SDS011;46851;49.160;8.980;2024-01-27T00:33:45;10.20;;;4.90;;
60979;SDS011;46851;49.160;8.980;2024-01-27T00:36:11;10.88;;;4.63;;
60979;SDS011;46851;49.160;8.980;2024-01-27T00:38:37;11.68;;;4.72;;
60979;SDS011;46851;49.160;8.980;2024-01-27T00:41:04;10.82;;;4.70;;
60979;SDS011;46851;49.160;8.980;2024-01-27T00:43:30;10.27;;;3.97;;
60979;SDS011;46851;49.160;8.980;2024-01-27T00:45:56;8.73;;;3.80;;
60979;SDS011;46851;49.160;8.980;2024-01-27T00:48:22;9.70;;;5.03;;
60979;SDS011;46851;49.160;8.980;2024-01-27T00:50:48;11.80;;;5.03;;
60979;SDS011;46851;49.160;8.980;2024-01-27T00:53:14;14.45;;;5.03;;
60979;SDS011;46851;49.160;8.980;2024-01-27T00:55:40;11.25;;;4.78;;
60979;SDS011;46851;49.160;8.980;2024-01-27T00:58:07;18.58;;;5.15;;
60979;SDS011;46851;49.160;8.980;2024-01-27T01:00:33;7.65;;;4.57;;
60979;SDS011;46851;49.160;8.980;2024-01-27T01:02:59;13.63;;;4.90;;
60979;SDS011;46851;49.160;8.980;2024-01-27T01:05:25;13.65;;;5.43;;
60979;SDS011;46851;49.160;8.980;2024-01-27T01:07:51;9.90;;;5.18;;
60979;SDS011;46851;49.160;8.980;2024-01-27T01:10:17;16.45;;;6.40;;
60979;SDS011;46851;49.160;8.980;2024-01-27T01:12:43;10.95;;;4.85;;
60979;SDS011;46851;49.160;8.980;2024-01-27T01:15:09;13.27;;;5.80;;
60979;SDS011;46851;49.160;8.980;2024-01-27T01:17:35;10.13;;;5.30;;
60979;SDS011;46851;49.160;8.980;2024-01-27T01:20:01;9.93;;;5.60;;
60979;SDS011;46851;49.160;8.980;2024-01-27T01:22:27;10.77;;;5.53;;
60979;SDS011;46851;49.160;8.980;2024-01-27T01:24:53;13.77;;;6.30;;
60979;SDS011;46851;49.160;8.980;2024-01-27T01:27:19;15.32;;;5.40;;
60979;SDS011;46851;49.160;8.980;2024-01-27T01:29:46;9.93;;;5.05;;
60979;SDS011;46851;49.160;8.980;2024-01-27T01:32:12;14.68;;;6.35;;
60979;SDS011;46851;49.160;8.980;2024-01-27T01:34:38;10.07;;;6.15;;
60979;SDS011;46851;49.160;8.980;2024-01-27T01:37:04;14.95;;;6.43;;
60979;SDS011;46851;49.160;8.980;2024-01-27T01:39:30;11.70;;;6.03;;
60979;SDS011;46851;49.160;8.980;2024-01-27T01:41:57;12.82;;;5.70;;
60979;SDS011;46851;49.160;8.980;2024-01-27T01:44:24;9.55;;;5.63;;
60979;SDS011;46851;49.160;8.980;2024-01-27T01:46:55;11.05;;;5.35;;
60979;SDS011;46851;49.160;8.980;2024-01-27T01:49:21;9.77;;;5.45;;
60979;SDS011;46851;49.160;8.980;2024-01-27T01:51:47;10.25;;;5.40;;
60979;SDS011;46851;49.160;8.980;2024-01-27T01:54:13;15.07;;;5.25;;
60979;SDS011;46851;49.160;8.980;2024-01-27T01:56:39;12.95;;;4.90;;
60979;SDS011;46851;49.160;8.980;2024-01-27T01:59:05;15.35;;;5.07;;
60979;SDS011;46851;49.160;8.980;2024-01-27T02:01:31;11.50;;;5.57;;
60979;SDS011;46851;49.160;8.980;2024-01-27T02:03:57;11.82;;;5.15;;
60979;SDS011;46851;49.160;8.980;2024-01-27T02:06:23;12.18;;;5.50;;
60979;SDS011;46851;49.160;8.980;2024-01-27T02:08:50;11.90;;;5.65;;
60979;SDS011;46851;49.160;8.980;2024-01-27T02:11:16;9.00;;;5.03;;
60979;SDS011;46851;49.160;8.980;2024-01-27T02:13:42;10.43;;;5.38;;
60979;SDS011;46851;49.160;8.980;2024-01-27T02:16:09;12.98;;;5.72;;
60979;SDS011;46851;49.160;8.980;2024-01-27T02:18:35;9.02;;;4.90;;
60979;SDS011;46851;49.160;8.980;2024-01-27T02:21:01;10.30;;;5.88;;
60979;SDS011;46851;49.160;8.980;2024-01-27T02:23:27;9.60;;;5.32;;
60979;SDS011;46851;49.160;8.980;2024-01-27T02:25:53;12.15;;;4.93;;
60979;SDS011;46851;49.160;8.980;2024-01-27T02:28:20;13.88;;;5.90;;
60979;SDS011;46851;49.160;8.980;2024-01-27T02:30:46;11.55;;;5.72;;
60979;SDS011;46851;49.160;8.980;2024-01-27T02:33:12;14.77;;;5.93;;
60979;SDS011;46851;49.160;8.980;2024-01-27T02:35:38;13.32;;;5.95;;
60979;SDS011;46851;49.160;8.980;2024-01-27T02:38:04;11.40;;;6.22;;
60979;SDS011;46851;49.160;8.980;2024-01-27T02:40:30;11.57;;;5.53;;
60979;SDS011;46851;49.160;8.980;2024-01-27T02:45:57;10.45;;;5.35;;
60979;SDS011;46851;49.160;8.980;2024-01-27T02:48:23;11.68;;;6.20;;
60979;SDS011;46851;49.160;8.980;2024-01-27T02:50:49;15.88;;;5.90;;
60979;SDS011;46851;49.160;8.980;2024-01-27T02:53:15;10.93;;;5.70;;
60979;SDS011;46851;49.160;8.980;2024-01-27T02:55:41;17.27;;;6.30;;
60979;SDS011;46851;49.160;8.980;2024-01-27T02:58:07;9.60;;;5.60;;
60979;SDS011;46851;49.160;8.980;2024-01-27T03:00:33;15.43;;;5.78;;
60979;SDS011;46851;49.160;8.980;2024-01-27T03:02:59;13.02;;;6.13;;
60979;SDS011;46851;49.160;8.980;2024-01-27T03:05:25;11.63;;;6.00;;
60979;SDS011;46851;49.160;8.980;2024-01-27T03:07:51;20.73;;;6.65;;
60979;SDS011;46851;49.160;8.980;2024-01-27T03:10:17;12.65;;;6.38;;
60979;SDS011;46851;49.160;8.980;2024-01-27T03:12:43;11.35;;;5.70;;
60979;SDS011;46851;49.160;8.980;2024-01-27T03:15:09;9.45;;;5.70;;
60979;SDS011;46851;49.160;8.980;2024-01-27T03:17:34;11.27;;;5.70;;
60979;SDS011;46851;49.160;8.980;2024-01-27T03:20:00;11.90;;;5.68;;
60979;SDS011;46851;49.160;8.980;2024-01-27T03:22:26;10.57;;;5.68;;
60979;SDS011;46851;49.160;8.980;2024-01-27T03:24:52;20.95;;;6.28;;
60979;SDS011;46851;49.160;8.980;2024-01-27T03:27:20;15.00;;;5.47;;
60979;SDS011;46851;49.160;8.980;2024-01-27T03:29:46;14.73;;;5.32;;
60979;SDS011;46851;49.160;8.980;2024-01-27T03:32:12;13.60;;;5.53;;
60979;SDS011;46851;49.160;8.980;2024-01-27T03:34:43;15.40;;;6.18;;
60979;SDS011;46851;49.160;8.980;2024-01-27T03:37:10;12.43;;;5.63;;
60979;SDS011;46851;49.160;8.980;2024-01-27T03:39:36;15.35;;;6.85;;
60979;SDS011;46851;49.160;8.980;2024-01-27T03:42:02;19.48;;;6.40;;
60979;SDS011;46851;49.160;8.980;2024-01-27T03:44:28;14.82;;;6.47;;
60979;SDS011;46851;49.160;8.980;2024-01-27T03:46:54;11.07;;;5.55;;
60979;SDS011;46851;49.160;8.980;2024-01-27T03:49:20;9.82;;;5.68;;
60979;SDS011;46851;49.160;8.980;2024-01-27T03:51:46;11.57;;;5.88;;
60979;SDS011;46851;49.160;8.980;2024-01-27T03:54:12;11.93;;;5.85;;
60979;SDS011;46851;49.160;8.980;2024-01-27T03:56:39;12.85;;;6.28;;
60979;SDS011;46851;49.160;8.980;2024-01-27T03:59:05;12.13;;;6.22;;
60979;SDS011;46851;49.160;8.980;2024-01-27T04:01:34;12.80;;;6.03;;
60979;SDS011;46851;49.160;8.980;2024-01-27T04:04:00;15.88;;;6.70;;
60979;SDS011;46851;49.160;8.980;2024-01-27T04:06:26;11.15;;;5.80;;
60979;SDS011;46851;49.160;8.980;2024-01-27T04:08:52;14.18;;;5.88;;
60979;SDS011;46851;49.160;8.980;2024-01-27T04:11:21;12.45;;;5.38;;
60979;SDS011;46851;49.160;8.980;2024-01-27T04:13:48;13.95;;;5.75;;
60979;SDS011;46851;49.160;8.980;2024-01-27T04:16:14;10.82;;;6.40;;
60979;SDS011;46851;49.160;8.980;2024-01-27T04:18:41;9.77;;;5.50;;
60979;SDS011;46851;49.160;8.980;2024-01-27T04:21:07;11.65;;;5.28;;
60979;SDS011;46851;49.160;8.980;2024-01-27T04:23:33;12.73;;;5.93;;
60979;SDS011;46851;49.160;8.980;2024-01-27T04:25:59;12.35;;;5.68;;
60979;SDS011;46851;49.160;8.980;2024-01-27T04:28:25;14.45;;;6.45;;
60979;SDS011;46851;49.160;8.980;2024-01-27T04:30:51;18.90;;;7.45;;
60979;SDS011;46851;49.160;8.980;2024-01-27T04:33:17;18.30;;;7.63;;
60979;SDS011;46851;49.160;8.980;2024-01-27T04:35:44;14.52;;;6.57;;
60979;SDS011;46851;49.160;8.980;2024-01-27T04:38:09;12.85;;;6.07;;
60979;SDS011;46851;49.160;8.980;2024-01-27T04:40:35;16.23;;;7.10;;
60979;SDS011;46851;49.160;8.980;2024-01-27T04:43:01;16.95;;;6.70;;
60979;SDS011;46851;49.160;8.980;2024-01-27T04:45:28;15.65;;;6.88;;
60979;SDS011;46851;49.160;8.980;2024-01-27T04:47:54;16.05;;;7.28;;
60979;SDS011;46851;49.160;8.980;2024-01-27T04:50:20;17.50;;;7.13;;
60979;SDS011;46851;49.160;8.980;2024-01-27T04:52:46;13.50;;;6.60;;
60979;SDS011;46851;49.160;8.980;2024-01-27T04:55:12;20.15;;;6.97;;
60979;SDS011;46851;49.160;8.980;2024-01-27T04:57:38;18.38;;;6.90;;
60979;SDS011;46851;49.160;8.980;2024-01-27T05:00:04;21.25;;;8.80;;
60979;SDS011;46851;49.160;8.980;2024-01-27T05:02:32;17.27;;;6.85;;
60979;SDS011;46851;49.160;8.980;2024-01-27T05:04:58;15.85;;;6.43;;
60979;SDS011;46851;49.160;8.980;2024-01-27T05:07:24;19.30;;;7.03;;
60979;SDS011;46851;49.160;8.980;2024-01-27T05:09:50;15.00;;;7.00;;
60979;SDS011;46851;49.160;8.980;2024-01-27T05:12:16;10.25;;;6.10;;
60979;SDS011;46851;49.160;8.980;2024-01-27T05:14:45;20.42;;;6.93;;
60979;SDS011;46851;49.160;8.980;2024-01-27T05:17:11;12.77;;;5.63;;
60979;SDS011;46851;49.160;8.980;2024-01-27T05:19:37;18.23;;;6.65;;
60979;SDS011;46851;49.160;8.980;2024-01-27T05:22:03;14.98;;;7.28;;
60979;SDS011;46851;49.160;8.980;2024-01-27T05:24:29;10.80;;;6.03;;
60979;SDS011;46851;49.160;8.980;2024-01-27T05:26:55;17.33;;;6.20;;
60979;SDS011;46851;49.160;8.980;2024-01-27T05:29:21;15.00;;;6.40;;
60979;SDS011;46851;49.160;8.980;2024-01-27T05:31:47;18.45;;;6.57;;
60979;SDS011;46851;49.160;8.980;2024-01-27T05:34:14;16.35;;;6.40;;
60979;SDS011;46851;49.160;8.980;2024-01-27T05:36:40;11.85;;;6.05;;
60979;SDS011;46851;49.160;8.980;2024-01-27T05:39:06;15.65;;;6.53;;
60979;SDS011;46851;49.160;8.980;2024-01-27T05:41:33;16.33;;;6.30;;
60979;SDS011;46851;49.160;8.980;2024-01-27T05:43:59;17.48;;;6.88;;
60979;SDS011;46851;49.160;8.980;2024-01-27T05:46:25;11.75;;;6.78;;
60979;SDS011;46851;49.160;8.980;2024-01-27T05:48:51;11.85;;;6.50;;
60979;SDS011;46851;49.160;8.980;2024-01-27T05:51:21;16.17;;;7.05;;
60979;SDS011;46851;49.160;8.980;2024-01-27T05:53:48;16.77;;;7.03;;
60979;SDS011;46851;49.160;8.980;2024-01-27T05:56:14;13.63;;;6.70;;
60979;SDS011;46851;49.160;8.980;2024-01-27T05:58:41;15.65;;;7.10;;
60979;SDS011;46851;49.160;8.980;2024-01-27T06:01:07;14.90;;;8.13;;
60979;SDS011;46851;49.160;8.980;2024-01-27T06:03:34;18.65;;;7.50;;
60979;SDS011;46851;49.160;8.980;2024-01-27T06:06:01;23.67;;;9.13;;
60979;SDS011;46851;49.160;8.980;2024-01-27T06:08:27;19.67;;;7.85;;
60979;SDS011;46851;49.160;8.980;2024-01-27T06:10:53;23.80;;;9.85;;
60979;SDS011;46851;49.160;8.980;2024-01-27T06:13:19;22.00;;;9.80;;
60979;SDS011;46851;49.160;8.980;2024-01-27T06:15:45;14.80;;;7.38;;
60979;SDS011;46851;49.160;8.980;2024-01-27T06:18:11;16.35;;;7.80;;
60979;SDS011;46851;49.160;8.980;2024-01-27T06:20:37;14.52;;;6.78;;
60979;SDS011;46851;49.160;8.980;2024-01-27T06:23:05;14.45;;;7.60;;
60979;SDS011;46851;49.160;8.980;2024-01-27T06:25:31;17.58;;;7.38;;
60979;SDS011;46851;49.160;8.980;2024-01-27T06:27:57;18.13;;;7.43;;
60979;SDS011;46851;49.160;8.980;2024-01-27T06:30:23;15.15;;;7.18;;
60979;SDS011;46851;49.160;8.980;2024-01-27T06:32:49;18.05;;;6.93;;
60979;SDS011;46851;49.160;8.980;2024-01-27T06:35:15;13.80;;;7.65;;
60979;SDS011;46851;49.160;8.980;2024-01-27T06:37:42;19.08;;;7.43;;
60979;SDS011;46851;49.160;8.980;2024-01-27T06:40:08;23.33;;;7.82;;
60979;SDS011;46851;49.160;8.980;2024-01-27T06:42:34;15.32;;;7.63;;
60979;SDS011;46851;49.160;8.980;2024-01-27T06:45:00;13.07;;;7.05;;
60979;SDS011;46851;49.160;8.980;2024-01-27T06:47:26;16.15;;;7.00;;
60979;SDS011;46851;49.160;8.980;2024-01-27T06:49:52;19.52;;;8.75;;
60979;SDS011;46851;49.160;8.980;2024-01-27T06:52:18;24.30;;;7.90;;
60979;SDS011;46851;49.160;8.980;2024-01-27T06:54:44;12.30;;;7.05;;
60979;SDS011;46851;49.160;8.980;2024-01-27T06:57:20;16.88;;;6.68;;
60979;SDS011;46851;49.160;8.980;2024-01-27T06:59:47;21.58;;;9.27;;
60979;SDS011;46851;49.160;8.980;2024-01-27T07:02:17;17.55;;;8.00;;
60979;SDS011;46851;49.160;8.980;2024-01-27T07:04:43;21.38;;;8.25;;
60979;SDS011;46851;49.160;8.980;2024-01-27T07:07:09;16.73;;;7.90;;
60979;SDS011;46851;49.160;8.980;2024-01-27T07:09:35;17.85;;;7.65;;
60979;SDS011;46851;49.160;8.980;2024-01-27T07:12:01;16.05;;;7.32;;
60979;SDS011;46851;49.160;8.980;2024-01-27T07:14:27;16.63;;;7.97;;
60979;SDS011;46851;49.160;8.980;2024-01-27T07:16:53;20.48;;;7.80;;
60979;SDS011;46851;49.160;8.980;2024-01-27T07:19:19;15.40;;;7.68;;
60979;SDS011;46851;49.160;8.980;2024-01-27T07:21:45;14.32;;;7.32;;
60979;SDS011;46851;49.160;8.980;2024-01-27T07:24:11;15.13;;;7.20;;
60979;SDS011;46851;49.160;8.980;2024-01-27T07:26:37;19.92;;;7.35;;
60979;SDS011;46851;49.160;8.980;2024-01-27T07:29:03;15.68;;;7.75;;
60979;SDS011;46851;49.160;8.980;2024-01-27T07:31:29;12.88;;;5.70;;
60979;SDS011;46851;49.160;8.980;2024-01-27T07:33:56;14.70;;;6.72;;
60979;SDS011;46851;49.160;8.980;2024-01-27T07:36:22;18.63;;;7.07;;
60979;SDS011;46851;49.160;8.980;2024-01-27T07:38:48;19.70;;;6.60;;
60979;SDS011;46851;49.160;8.980;2024-01-27T07:41:14;18.60;;;7.63;;
60979;SDS011;46851;49.160;8.980;2024-01-27T07:43:40;23.05;;;7.25;;
60979;SDS011;46851;49.160;8.980;2024-01-27T07:46:07;18.27;;;6.18;;
60979;SDS011;46851;49.160;8.980;2024-01-27T07:48:33;11.35;;;6.30;;
60979;SDS011;46851;49.160;8.980;2024-01-27T07:50:59;17.30;;;6.55;;
60979;SDS011;46851;49.160;8.980;2024-01-27T07:53:25;17.30;;;7.65;;
60979;SDS011;46851;49.160;8.980;2024-01-27T07:55:51;13.35;;;7.68;;
60979;SDS011;46851;49.160;8.980;2024-01-27T07:58:19;22.60;;;6.88;;
60979;SDS011;46851;49.160;8.980;2024-01-27T08:00:44;15.10;;;8.13;;
60979;SDS011;46851;49.160;8.980;2024-01-27T08:03:10;26.75;;;11.52;;
60979;SDS011;46851;49.160;8.980;2024-01-27T08:05:36;27.42;;;14.25;;
60979;SDS011;46851;49.160;8.980;2024-01-27T08:08:03;27.20;;;13.07;;
60979;SDS011;46851;49.160;8.980;2024-01-27T08:10:29;23.75;;;10.68;;
60979;SDS011;46851;49.160;8.980;2024-01-27T08:12:55;22.40;;;10.52;;
60979;SDS011;46851;49.160;8.980;2024-01-27T08:15:21;21.30;;;9.82;;
60979;SDS011;46851;49.160;8.980;2024-01-27T08:17:47;16.60;;;8.27;;
60979;SDS011;46851;49.160;8.980;2024-01-27T08:20:13;15.93;;;7.57;;
60979;SDS011;46851;49.160;8.980;2024-01-27T08:22:39;23.95;;;9.88;;
60979;SDS011;46851;49.160;8.980;2024-01-27T08:25:05;22.15;;;8.13;;
60979;SDS011;46851;49.160;8.980;2024-01-27T08:27:31;18.77;;;8.88;;
60979;SDS011;46851;49.160;8.980;2024-01-27T08:29:57;31.38;;;11.00;;
60979;SDS011;46851;49.160;8.980;2024-01-27T08:32:23;22.77;;;8.02;;
60979;SDS011;46851;49.160;8.980;2024-01-27T08:34:49;29.23;;;12.18;;
60979;SDS011;46851;49.160;8.980;2024-01-27T08:37:17;27.95;;;10.18;;
60979;SDS011;46851;49.160;8.980;2024-01-27T08:39:44;11.27;;;5.22;;
60979;SDS011;46851;49.160;8.980;2024-01-27T08:42:10;12.48;;;5.32;;
60979;SDS011;46851;49.160;8.980;2024-01-27T08:44:40;14.32;;;7.32;;
60979;SDS011;46851;49.160;8.980;2024-01-27T08:47:06;11.60;;;5.83;;
60979;SDS011;46851;49.160;8.980;2024-01-27T08:49:32;16.77;;;8.85;;
60979;SDS011;46851;49.160;8.980;2024-01-27T08:51:58;10.73;;;5.80;;
60979;SDS011;46851;49.160;8.980;2024-01-27T08:54:24;7.35;;;4.72;;
60979;SDS011;46851;49.160;8.980;2024-01-27T08:56:50;10.15;;;4.65;;
60979;SDS011;46851;49.160;8.980;2024-01-27T08:59:16;12.82;;;5.50;;
60979;SDS011;46851;49.160;8.980;2024-01-27T09:01:42;12.18;;;5.75;;
60979;SDS011;46851;49.160;8.980;2024-01-27T09:04:08;13.75;;;5.70;;
60979;SDS011;46851;49.160;8.980;2024-01-27T09:06:34;12.82;;;6.00;;
60979;SDS011;46851;49.160;8.980;2024-01-27T09:09:00;11.15;;;5.93;;
60979;SDS011;46851;49.160;8.980;2024-01-27T09:11:26;11.20;;;4.57;;
60979;SDS011;46851;49.160;8.980;2024-01-27T09:13:55;10.57;;;4.32;;
60979;SDS011;46851;49.160;8.980;2024-01-27T09:16:21;11.35;;;4.85;;
60979;SDS011;46851;49.160;8.980;2024-01-27T09:18:47;10.90;;;3.65;;
60979;SDS011;46851;49.160;8.980;2024-01-27T09:21:15;8.43;;;4.82;;
60979;SDS011;46851;49.160;8.980;2024-01-27T09:23:45;17.35;;;4.38;;
60979;SDS011;46851;49.160;8.980;2024-01-27T09:26:12;11.25;;;3.30;;
60979;SDS011;46851;49.160;8.980;2024-01-27T09:28:40;9.60;;;3.47;;
60979;SDS011;46851;49.160;8.980;2024-01-27T09:31:10;7.72;;;3.80;;
60979;SDS011;46851;49.160;8.980;2024-01-27T09:33:36;8.52;;;2.88;;
60979;SDS011;46851;49.160;8.980;2024-01-27T09:36:02;7.93;;;2.95;;
60979;SDS011;46851;49.160;8.980;2024-01-27T09:38:29;10.77;;;3.58;;
60979;SDS011;46851;49.160;8.980;2024-01-27T09:40:55;13.38;;;3.85;;
60979;SDS011;46851;49.160;8.980;2024-01-27T09:43:21;7.10;;;2.63;;
60979;SDS011;46851;49.160;8.980;2024-01-27T09:45:47;9.13;;;3.53;;
60979;SDS011;46851;49.160;8.980;2024-01-27T09:48:13;12.23;;;3.60;;
60979;SDS011;46851;49.160;8.980;2024-01-27T09:50:44;7.05;;;3.20;;
60979;SDS011;46851;49.160;8.980;2024-01-27T09:53:11;8.10;;;2.90;;
60979;SDS011;46851;49.160;8.980;2024-01-27T09:55:37;7.88;;;3.28;;
60979;SDS011;46851;49.160;8.980;2024-01-27T09:58:03;9.52;;;3.78;;
60979;SDS011;46851;49.160;8.980;2024-01-27T10:00:29;25.95;;;11.77;;
60979;SDS011;46851;49.160;8.980;2024-01-27T10:02:56;6.53;;;3.33;;
60979;SDS011;46851;49.160;8.980;2024-01-27T10:05:22;8.80;;;3.83;;
60979;SDS011;46851;49.160;8.980;2024-01-27T10:07:49;11.63;;;4.18;;
60979;SDS011;46851;49.160;8.980;2024-01-27T10:10:16;6.18;;;3.10;;
60979;SDS011;46851;49.160;8.980;2024-01-27T10:12:42;12.05;;;4.28;;
60979;SDS011;46851;49.160;8.980;2024-01-27T10:15:18;10.63;;;4.50;;
60979;SDS011;46851;49.160;8.980;2024-01-27T10:17:44;9.10;;;3.22;;
60979;SDS011;46851;49.160;8.980;2024-01-27T10:20:10;11.02;;;3.13;;
60979;SDS011;46851;49.160;8.980;2024-01-27T10:22:43;7.13;;;3.08;;
60979;SDS011;46851;49.160;8.980;2024-01-27T10:25:10;9.85;;;2.58;;
60979;SDS011;46851;49.160;8.980;2024-01-27T10:27:37;9.25;;;3.00;;
60979;SDS011;46851;49.160;8.980;2024-01-27T10:30:03;14.32;;;5.20;;
60979;SDS011;46851;49.160;8.980;2024-01-27T10:32:29;7.10;;;3.00;;
60979;SDS011;46851;49.160;8.980;2024-01-27T10:35:04;10.48;;;3.20;;
60979;SDS011;46851;49.160;8.980;2024-01-27T10:37:33;7.18;;;3.15;;
60979;SDS011;46851;49.160;8.980;2024-01-27T10:40:06;10.77;;;3.75;;
60979;SDS011;46851;49.160;8.980;2024-01-27T10:42:36;7.68;;;3.80;;
60979;SDS011;46851;49.160;8.980;2024-01-27T10:45:02;7.60;;;4.40;;
60979;SDS011;46851;49.160;8.980;2024-01-27T10:47:29;8.63;;;3.88;;
60979;SDS011;46851;49.160;8.980;2024-01-27T10:49:56;9.48;;;4.15;;
60979;SDS011;46851;49.160;8.980;2024-01-27T10:52:23;9.85;;;4.43;;
60979;SDS011;46851;49.160;8.980;2024-01-27T10:54:54;8.73;;;4.22;;
60979;SDS011;46851;49.160;8.980;2024-01-27T10:57:21;8.15;;;4.20;;
60979;SDS011;46851;49.160;8.980;2024-01-27T10:59:48;9.23;;;4.30;;
60979;SDS011;46851;49.160;8.980;2024-01-27T11:02:14;10.82;;;3.90;;
60979;SDS011;46851;49.160;8.980;2024-01-27T11:04:42;10.32;;;4.10;;
60979;SDS011;46851;49.160;8.980;2024-01-27T11:07:08;10.18;;;3.30;;
60979;SDS011;46851;49.160;8.980;2024-01-27T11:09:35;12.50;;;3.58;;
60979;SDS011;46851;49.160;8.980;2024-01-27T11:12:01;7.65;;;3.95;;
60979;SDS011;46851;49.160;8.980;2024-01-27T11:14:28;11.98;;;3.30;;
60979;SDS011;46851;49.160;8.980;2024-01-27T11:16:55;10.20;;;3.53;;
60979;SDS011;46851;49.160;8.980;2024-01-27T11:19:21;9.25;;;2.95;;
60979;SDS011;46851;49.160;8.980;2024-01-27T11:21:47;10.60;;;2.95;;
60979;SDS011;46851;49.160;8.980;2024-01-27T11:24:14;13.65;;;3.53;;
60979;SDS011;46851;49.160;8.980;2024-01-27T11:26:40;7.13;;;3.25;;
60979;SDS011;46851;49.160;8.980;2024-01-27T11:29:07;11.23;;;3.40;;
60979;SDS011;46851;49.160;8.980;2024-01-27T11:31:34;13.65;;;4.05;;
60979;SDS011;46851;49.160;8.980;2024-01-27T11:34:01;9.25;;;3.95;;
60979;SDS011;46851;49.160;8.980;2024-01-27T11:36:27;10.40;;;4.07;;
60979;SDS011;46851;49.160;8.980;2024-01-27T11:38:53;10.68;;;4.20;;
60979;SDS011;46851;49.160;8.980;2024-01-27T11:41:38;14.40;;;4.50;;
60979;SDS011;46851;49.160;8.980;2024-01-27T11:44:07;13.27;;;4.80;;
60979;SDS011;46851;49.160;8.980;2024-01-27T11:46:40;15.63;;;5.15;;
60979;SDS011;46851;49.160;8.980;2024-01-27T11:49:06;10.65;;;4.15;;
60979;SDS011;46851;49.160;8.980;2024-01-27T11:51:33;9.23;;;5.18;;
60979;SDS011;46851;49.160;8.980;2024-01-27T11:53:58;15.05;;;3.97;;
60979;SDS011;46851;49.160;8.980;2024-01-27T11:56:25;10.80;;;4.38;;
60979;SDS011;46851;49.160;8.980;2024-01-27T11:58:51;12.30;;;4.30;;
60979;SDS011;46851;49.160;8.980;2024-01-27T12:01:17;13.02;;;3.88;;
60979;SDS011;46851;49.160;8.980;2024-01-27T12:03:43;13.27;;;4.25;;
60979;SDS011;46851;49.160;8.980;2024-01-27T12:06:09;14.38;;;5.03;;
60979;SDS011;46851;49.160;8.980;2024-01-27T12:08:35;11.20;;;4.30;;
60979;SDS011;46851;49.160;8.980;2024-01-27T12:11:01;8.50;;;4.38;;
60979;SDS011;46851;49.160;8.980;2024-01-27T12:13:27;14.73;;;4.65;;
60979;SDS011;46851;49.160;8.980;2024-01-27T12:15:53;11.55;;;4.00;;
60979;SDS011;46851;49.160;8.980;2024-01-27T12:18:20;11.30;;;3.55;;
60979;SDS011;46851;49.160;8.980;2024-01-27T12:20:46;13.20;;;4.43;;
60979;SDS011;46851;49.160;8.980;2024-01-27T12:28:49;10.33;;;4.13;;
60979;SDS011;46851;49.160;8.980;2024-01-27T12:31:20;7.85;;;4.50;;
60979;SDS011;46851;49.160;8.980;2024-01-27T12:33:51;6.53;;;3.83;;
60979;SDS011;46851;49.160;8.980;2024-01-27T12:36:18;13.98;;;4.75;;
60979;SDS011;46851;49.160;8.980;2024-01-27T12:38:52;12.48;;;4.55;;
60979;SDS011;46851;49.160;8.980;2024-01-27T12:41:21;9.70;;;4.25;;
60979;SDS011;46851;49.160;8.980;2024-01-27T12:43:47;14.45;;;4.85;;
60979;SDS011;46851;49.160;8.980;2024-01-27T12:46:14;13.35;;;4.07;;
60979;SDS011;46851;49.160;8.980;2024-01-27T12:48:41;13.07;;;4.95;;
60979;SDS011;46851;49.160;8.980;2024-01-27T12:51:07;12.65;;;4.40;;
60979;SDS011;46851;49.160;8.980;2024-01-27T12:53:34;10.38;;;4.45;;
60979;SDS011;46851;49.160;8.980;2024-01-27T12:56:00;12.18;;;4.10;;
60979;SDS011;46851;49.160;8.980;2024-01-27T12:58:26;10.10;;;3.80;;
60979;SDS011;46851;49.160;8.980;2024-01-27T13:00:52;10.18;;;3.75;;
60979;SDS011;46851;49.160;8.980;2024-01-27T13:03:18;12.68;;;4.50;;
60979;SDS011;46851;49.160;8.980;2024-01-27T13:05:44;12.02;;;3.75;;
60979;SDS011;46851;49.160;8.980;2024-01-27T13:08:10;11.23;;;3.90;;
60979;SDS011;46851;49.160;8.980;2024-01-27T13:10:36;14.98;;;4.10;;
60979;SDS011;46851;49.160;8.980;2024-01-27T13:13:02;14.25;;;3.50;;
60979;SDS011;46851;49.160;8.980;2024-01-27T13:15:29;12.20;;;4.05;;
60979;SDS011;46851;49.160;8.980;2024-01-27T13:17:55;9.88;;;3.55;;
60979;SDS011;46851;49.160;8.980;2024-01-27T13:20:22;9.20;;;3.53;;
60979;SDS011;46851;49.160;8.980;2024-01-27T13:22:48;10.90;;;3.45;;
60979;SDS011;46851;49.160;8.980;2024-01-27T13:25:14;8.15;;;3.58;;
60979;SDS011;46851;49.160;8.980;2024-01-27T13:27:40;16.02;;;4.47;;
60979;SDS011;46851;49.160;8.980;2024-01-27T13:30:06;11.82;;;3.40;;
60979;SDS011;46851;49.160;8.980;2024-01-27T13:32:32;7.55;;;3.25;;
60979;SDS011;46851;49.160;8.980;2024-01-27T13:34:58;9.70;;;3.20;;
60979;SDS011;46851;49.160;8.980;2024-01-27T13:37:24;10.38;;;3.63;;
60979;SDS011;46851;49.160;8.980;2024-01-27T13:39:51;6.68;;;3.08;;
60979;SDS011;46851;49.160;8.980;2024-01-27T13:42:17;16.38;;;4.30;;
60979;SDS011;46851;49.160;8.980;2024-01-27T13:44:43;8.77;;;3.50;;
60979;SDS011;46851;49.160;8.980;2024-01-27T13:47:11;11.52;;;3.40;;
60979;SDS011;46851;49.160;8.980;2024-01-27T13:49:38;8.13;;;3.15;;
60979;SDS011;46851;49.160;8.980;2024-01-27T13:52:05;9.68;;;3.33;;
60979;SDS011;46851;49.160;8.980;2024-01-27T13:54:31;12.05;;;3.35;;
60979;SDS011;46851;49.160;8.980;2024-01-27T13:56:59;12.02;;;3.33;;
60979;SDS011;46851;49.160;8.980;2024-01-27T13:59:25;13.95;;;3.60;;
60979;SDS011;46851;49.160;8.980;2024-01-27T14:01:51;17.83;;;8.02;;
60979;SDS011;46851;49.160;8.980;2024-01-27T14:04:18;31.02;;;12.18;;
60979;SDS011;46851;49.160;8.980;2024-01-27T14:06:44;14.80;;;6.00;;
60979;SDS011;46851;49.160;8.980;2024-01-27T14:09:10;9.52;;;4.05;;
60979;SDS011;46851;49.160;8.980;2024-01-27T14:11:36;7.63;;;3.38;;
60979;SDS011;46851;49.160;8.980;2024-01-27T14:14:02;8.65;;;3.38;;
60979;SDS011;46851;49.160;8.980;2024-01-27T14:16:28;11.32;;;3.78;;
60979;SDS011;46851;49.160;8.980;2024-01-27T14:18:54;11.10;;;4.43;;
60979;SDS011;46851;49.160;8.980;2024-01-27T14:21:20;7.65;;;3.20;;
60979;SDS011;46851;49.160;8.980;2024-01-27T14:23:46;13.05;;;3.40;;
60979;SDS011;46851;49.160;8.980;2024-01-27T14:26:13;8.75;;;4.15;;
60979;SDS011;46851;49.160;8.980;2024-01-27T14:28:42;11.00;;;4.07;;
60979;SDS011;46851;49.160;8.980;2024-01-27T14:33:35;8.10;;;3.00;;
60979;SDS011;46851;49.160;8.980;2024-01-27T14:36:01;8.13;;;3.72;;
60979;SDS011;46851;49.160;8.980;2024-01-27T14:38:28;6.82;;;3.28;;
60979;SDS011;46851;49.160;8.980;2024-01-27T14:40:53;10.63;;;3.38;;
60979;SDS011;46851;49.160;8.980;2024-01-27T14:43:19;12.00;;;3.85;;